• Join FlightAware (Why Join?)
  • Login
  • US Flag 
03:24AM EDT


 

Airport Tracker/Info


-or-


 

Live Flight TrackerFlight Track Log ✈ N502QS ✈ 05-Jul-2013 ✈ RJTT / HND - KSFO

Flight Track Log - Related Links

Times and Time Zones

All times are in EDT time to prevent confusion due to time zone crossing. See the N502QS flight status page for this flight to view local times or setup timezone preferences in your user account.

Time Position Orientation Groundspeed Altitude Reporting Facility
EDT Latitude Longitude Course Direction KTS MPH feet Rate Location/Type
11:40AM 41.0000 160.0000 79° East 462 532 41,000  Level Oakland Oceanic (ODAPS)
11:46AM 41.8673 167.9431 84° East 462 532 41,000  Level FlightAware Transoceanic
11:47AM 41.8798 168.1141 84° East 462 532 41,000  Level FlightAware Transoceanic
11:48AM 41.8920 168.2853 85° East 462 532 41,000  Level FlightAware Transoceanic
11:49AM 41.9039 168.4565 85° East 462 532 41,000  Level FlightAware Transoceanic
11:50AM 41.9156 168.6277 85° East 462 532 41,000  Level FlightAware Transoceanic
11:51AM 41.9271 168.7991 85° East 462 532 41,000  Level FlightAware Transoceanic
11:52AM 41.9383 168.9704 85° East 462 532 41,000  Level FlightAware Transoceanic
11:53AM 41.9492 169.1419 85° East 462 532 41,000  Level FlightAware Transoceanic
11:54AM 41.9599 169.3134 85° East 462 532 41,000  Level FlightAware Transoceanic
11:55AM 41.9703 169.4850 85° East 462 532 41,000  Level FlightAware Transoceanic
11:56AM 41.9804 169.6566 86° East 462 532 41,000  Level FlightAware Transoceanic
11:57AM 41.9903 169.8283 86° East 462 532 41,000  Level FlightAware Transoceanic
11:58AM 42.0000 170.0000 71° East 462 532 41,000  Level FlightAware Transoceanic
11:59AM 42.0432 170.1726 71° East 462 532 41,000  Level FlightAware Transoceanic
12:00PM 42.0861 170.3454 72° East 462 532 41,000  Level FlightAware Transoceanic
12:01PM 42.1288 170.5185 72° East 462 532 41,000  Level FlightAware Transoceanic
12:02PM 42.1712 170.6918 72° East 462 532 41,000  Level FlightAware Transoceanic
12:03PM 42.2133 170.8653 72° East 462 532 41,000  Level FlightAware Transoceanic
12:04PM 42.2552 171.0391 72° East 462 532 41,000  Level FlightAware Transoceanic
12:05PM 42.2968 171.2130 72° East 462 532 41,000  Level FlightAware Transoceanic
12:06PM 42.3382 171.3873 72° East 462 532 41,000  Level FlightAware Transoceanic
12:07PM 42.3793 171.5617 72° East 462 532 41,000  Level FlightAware Transoceanic
12:08PM 42.4201 171.7364 72° East 462 532 41,000  Level FlightAware Transoceanic
12:09PM 42.4607 171.9113 73° East 462 532 41,000  Level FlightAware Transoceanic
12:10PM 42.5010 172.0864 73° East 462 532 41,000  Level FlightAware Transoceanic
12:11PM 42.5410 172.2618 73° East 462 532 41,000  Level FlightAware Transoceanic
12:12PM 42.5808 172.4373 73° East 462 532 41,000  Level FlightAware Transoceanic
12:13PM 42.6203 172.6131 73° East 462 532 41,000  Level FlightAware Transoceanic
12:14PM 42.6595 172.7892 73° East 462 532 41,000  Level FlightAware Transoceanic
12:15PM 42.6984 172.9654 73° East 462 532 41,000  Level FlightAware Transoceanic
12:16PM 42.7371 173.1419 73° East 462 532 41,000  Level FlightAware Transoceanic
12:17PM 42.7755 173.3185 74° East 462 532 41,000  Level FlightAware Transoceanic
12:18PM 42.8137 173.4955 74° East 462 532 41,000  Level FlightAware Transoceanic
12:19PM 42.8516 173.6726 74° East 462 532 41,000  Level FlightAware Transoceanic
12:20PM 42.8891 173.8499 74° East 462 532 41,000  Level FlightAware Transoceanic
12:21PM 42.9265 174.0275 74° East 462 532 41,000  Level FlightAware Transoceanic
12:22PM 42.9635 174.2052 74° East 462 532 41,000  Level FlightAware Transoceanic
12:23PM 43.0003 174.3832 74° East 462 532 41,000  Level FlightAware Transoceanic
12:24PM 43.0368 174.5614 74° East 462 532 41,000  Level FlightAware Transoceanic
12:25PM 43.0730 174.7398 75° East 462 532 41,000  Level FlightAware Transoceanic
12:26PM 43.1089 174.9184 75° East 462 532 41,000  Level FlightAware Transoceanic
12:27PM 43.1446 175.0972 75° East 462 532 41,000  Level FlightAware Transoceanic
12:28PM 43.1800 175.2763 75° East 462 532 41,000  Level FlightAware Transoceanic
12:29PM 43.2151 175.4555 75° East 462 532 41,000  Level FlightAware Transoceanic
12:30PM 43.2499 175.6349 75° East 462 532 41,000  Level FlightAware Transoceanic
12:31PM 43.2845 175.8146 75° East 462 532 41,000  Level FlightAware Transoceanic
12:32PM 43.3187 175.9944 75° East 462 532 41,000  Level FlightAware Transoceanic
12:33PM 43.3527 176.1745 76° East 462 532 41,000  Level FlightAware Transoceanic
12:34PM 43.3864 176.3547 76° East 462 532 41,000  Level FlightAware Transoceanic
12:35PM 43.4198 176.5352 76° East 462 532 41,000  Level FlightAware Transoceanic
12:36PM 43.4529 176.7158 76° East 462 532 41,000  Level FlightAware Transoceanic
12:37PM 43.4858 176.8967 76° East 462 532 41,000  Level FlightAware Transoceanic
12:38PM 43.5183 177.0777 76° East 462 532 41,000  Level FlightAware Transoceanic
12:39PM 43.5506 177.2590 76° East 462 532 41,000  Level FlightAware Transoceanic
12:40PM 43.5826 177.4404 76° East 462 532 41,000  Level FlightAware Transoceanic
12:41PM 43.6143 177.6220 77° East 462 532 41,000  Level FlightAware Transoceanic
12:42PM 43.6457 177.8038 77° East 462 532 41,000  Level FlightAware Transoceanic
12:43PM 43.6768 177.9859 77° East 462 532 41,000  Level FlightAware Transoceanic
12:44PM 43.7077 178.1680 77° East 462 532 41,000  Level FlightAware Transoceanic
12:45PM 43.7382 178.3504 77° East 462 532 41,000  Level FlightAware Transoceanic
12:46PM 43.7685 178.5330 77° East 462 532 41,000  Level FlightAware Transoceanic
12:47PM 43.7985 178.7157 77° East 462 532 41,000  Level FlightAware Transoceanic
12:48PM 43.8281 178.8987 77° East 462 532 41,000  Level FlightAware Transoceanic
12:49PM 43.8575 179.0818 78° East 462 532 41,000  Level FlightAware Transoceanic
12:50PM 43.8866 179.2651 78° East 462 532 41,000  Level FlightAware Transoceanic
12:51PM 43.9154 179.4485 78° East 462 532 41,000  Level FlightAware Transoceanic
12:52PM 43.9439 179.6322 78° East 462 532 41,000  Level FlightAware Transoceanic
12:53PM 43.9721 179.8160 78° East 462 532 41,000 300 Level FlightAware Transoceanic
12:54PM 44.0197 -179.8777 78° East  Level Estimated
12:55PM 44.0666 -179.5710 78° East  Level Estimated
12:56PM 44.1126 -179.2638 78° East  Level Estimated
12:57PM 44.1578 -178.9561 78° East  Level Estimated
12:58PM 44.2022 -178.6479 79° East  Level Estimated
12:58PM 44.0000 -180.0000 71° East 510 587 43,000  Level Oakland Oceanic (ODAPS)
12:59PM 44.2457 -178.3393 79° East  Level Estimated
01:00PM 44.2884 -178.0302 79° East  Level Estimated
01:01PM 44.3303 -177.7207 79° East  Level Estimated
01:02PM 44.3713 -177.4107 79° East  Level Estimated
01:03PM 44.4115 -177.1003 80° East  Level Estimated
01:04PM 44.4077 -178.3208 72° East 510 587 43,000  Level FlightAware Transoceanic
01:05PM 44.4515 -178.1328 72° East 510 587 43,000  Level FlightAware Transoceanic
01:06PM 44.4949 -177.9446 72° East 510 587 43,000  Level FlightAware Transoceanic
01:07PM 44.5381 -177.7560 72° East 510 587 43,000  Level FlightAware Transoceanic
01:08PM 44.5809 -177.5672 72° East 510 587 43,000  Level FlightAware Transoceanic
01:09PM 44.6235 -177.3781 73° East 510 587 43,000  Level FlightAware Transoceanic
01:10PM 44.6657 -177.1887 73° East 510 587 43,000  Level FlightAware Transoceanic
01:11PM 44.7076 -176.9990 73° East 510 587 43,000  Level FlightAware Transoceanic
01:12PM 44.7492 -176.8091 73° East 510 587 43,000  Level FlightAware Transoceanic
01:13PM 44.7904 -176.6189 73° East 510 587 43,000  Level FlightAware Transoceanic
01:14PM 44.8314 -176.4284 73° East 510 587 43,000  Level FlightAware Transoceanic
01:15PM 44.8720 -176.2376 73° East 510 587 43,000  Level FlightAware Transoceanic
01:16PM 44.9124 -176.0466 73° East 510 587 43,000  Level FlightAware Transoceanic
01:17PM 44.9524 -175.8553 74° East 510 587 43,000  Level FlightAware Transoceanic
01:18PM 44.9921 -175.6637 74° East 510 587 43,000  Level FlightAware Transoceanic
01:19PM 45.0314 -175.4719 74° East 510 587 43,000  Level FlightAware Transoceanic
01:20PM 45.0705 -175.2798 74° East 510 587 43,000  Level FlightAware Transoceanic
01:21PM 45.1092 -175.0875 74° East 510 587 43,000  Level FlightAware Transoceanic
01:22PM 45.1476 -174.8949 74° East 510 587 43,000  Level FlightAware Transoceanic
01:23PM 45.1857 -174.7020 74° East 510 587 43,000  Level FlightAware Transoceanic
01:24PM 45.2234 -174.5089 75° East 510 587 43,000  Level FlightAware Transoceanic
01:25PM 45.2608 -174.3155 75° East 510 587 43,000  Level FlightAware Transoceanic
01:26PM 45.2979 -174.1219 75° East 510 587 43,000  Level FlightAware Transoceanic
01:27PM 45.3347 -173.9280 75° East 510 587 43,000  Level FlightAware Transoceanic
01:28PM 45.3711 -173.7339 75° East 510 587 43,000  Level FlightAware Transoceanic
01:29PM 45.4072 -173.5395 75° East 510 587 43,000  Level FlightAware Transoceanic
01:30PM 45.4430 -173.3449 75° East 510 587 43,000  Level FlightAware Transoceanic
01:31PM 45.4785 -173.1500 76° East 510 587 43,000  Level FlightAware Transoceanic
01:32PM 45.5136 -172.9549 76° East 510 587 43,000  Level FlightAware Transoceanic
01:33PM 45.5484 -172.7595 76° East 510 587 43,000  Level FlightAware Transoceanic
01:34PM 45.5828 -172.5639 76° East 510 587 43,000  Level FlightAware Transoceanic
01:35PM 45.6170 -172.3681 76° East 510 587 43,000  Level FlightAware Transoceanic
01:36PM 45.6507 -172.1720 76° East 510 587 43,000  Level FlightAware Transoceanic
01:37PM 45.6842 -171.9757 76° East 510 587 43,000  Level FlightAware Transoceanic
01:38PM 45.7173 -171.7791 77° East 510 587 43,000  Level FlightAware Transoceanic
01:39PM 45.7501 -171.5824 77° East 510 587 43,000  Level FlightAware Transoceanic
01:40PM 45.7825 -171.3853 77° East 510 587 43,000  Level FlightAware Transoceanic
01:41PM 45.8146 -171.1881 77° East 510 587 43,000  Level FlightAware Transoceanic
01:42PM 45.8463 -170.9906 77° East 510 587 43,000  Level FlightAware Transoceanic
01:43PM 45.8778 -170.7930 77° East 510 587 43,000  Level FlightAware Transoceanic
01:44PM 45.9088 -170.5950 77° East 510 587 43,000  Level FlightAware Transoceanic
01:45PM 45.9396 -170.3969 78° East 510 587 43,000  Level FlightAware Transoceanic
01:46PM 45.9700 -170.1986 78° East 510 587 43,000  Level FlightAware Transoceanic
01:47PM 46.0000 -170.0000 78° East 510 587 43,000  Level FlightAware Transoceanic
01:48PM 46.0296 -169.7959 78° East 510 587 43,000  Level FlightAware Transoceanic
01:49PM 46.0589 -169.5916 78° East 510 587 43,000  Level FlightAware Transoceanic
01:50PM 46.0878 -169.3870 79° East 510 587 43,000  Level FlightAware Transoceanic
01:50PM 46.0000 -170.0000 78° East 523 602 43,000  Level Oakland Oceanic (ODAPS)
01:51PM 46.1163 -169.1823 79° East 510 587 43,000  Level FlightAware Transoceanic
01:52PM 46.1445 -168.9773 79° East 510 587 43,000  Level FlightAware Transoceanic
01:53PM 46.1722 -168.7721 79° East 510 587 43,000  Level FlightAware Transoceanic
01:54PM 46.1997 -168.5668 79° East 510 587 43,000  Level FlightAware Transoceanic
01:55PM 46.2267 -168.3612 79° East 510 587 43,000  Level FlightAware Transoceanic
01:56PM 46.2534 -168.1554 79° East 523 602 43,000  Level FlightAware Transoceanic
01:57PM 46.2798 -167.9494 80° East 523 602 43,000  Level FlightAware Transoceanic
01:58PM 46.3057 -167.7432 80° East 523 602 43,000  Level FlightAware Transoceanic
01:59PM 46.3313 -167.5368 80° East 523 602 43,000  Level FlightAware Transoceanic
02:00PM 46.3565 -167.3303 80° East 523 602 43,000  Level FlightAware Transoceanic
02:01PM 46.3813 -167.1235 80° East 523 602 43,000  Level FlightAware Transoceanic
02:02PM 46.4058 -166.9166 80° East 523 602 43,000  Level FlightAware Transoceanic
02:03PM 46.4299 -166.7094 80° East 523 602 43,000  Level FlightAware Transoceanic
02:04PM 46.4536 -166.5021 81° East 523 602 43,000  Level FlightAware Transoceanic
02:05PM 46.4769 -166.2946 81° East 523 602 43,000  Level FlightAware Transoceanic
02:06PM 46.4999 -166.0870 81° East 523 602 43,000  Level FlightAware Transoceanic
02:07PM 46.5225 -165.8791 81° East 523 602 43,000  Level FlightAware Transoceanic
02:08PM 46.5447 -165.6711 81° East 523 602 43,000  Level FlightAware Transoceanic
02:09PM 46.5665 -165.4630 81° East 523 602 43,000  Level FlightAware Transoceanic
02:10PM 46.5880 -165.2546 82° East 523 602 43,000  Level FlightAware Transoceanic
02:11PM 46.6091 -165.0461 82° East 523 602 43,000  Level FlightAware Transoceanic
02:12PM 46.6297 -164.8374 82° East 523 602 43,000  Level FlightAware Transoceanic
02:13PM 46.6501 -164.6286 82° East 523 602 43,000  Level FlightAware Transoceanic
02:14PM 46.6700 -164.4196 82° East 523 602 43,000  Level FlightAware Transoceanic
02:15PM 46.6896 -164.2105 82° East 523 602 43,000  Level FlightAware Transoceanic
02:16PM 46.7087 -164.0012 82° East 523 602 43,000  Level FlightAware Transoceanic
02:17PM 46.7275 -163.7918 83° East 523 602 43,000  Level FlightAware Transoceanic
02:18PM 46.7459 -163.5822 83° East 523 602 43,000  Level FlightAware Transoceanic
02:19PM 46.7640 -163.3725 83° East 523 602 43,000  Level FlightAware Transoceanic
02:20PM 46.7816 -163.1626 83° East 523 602 43,000  Level FlightAware Transoceanic
02:21PM 46.7989 -162.9526 83° East 523 602 43,000  Level FlightAware Transoceanic
02:22PM 46.8158 -162.7425 83° East 523 602 43,000  Level FlightAware Transoceanic
02:23PM 46.8322 -162.5322 84° East 523 602 43,000  Level FlightAware Transoceanic
02:24PM 46.8484 -162.3218 84° East 523 602 43,000  Level FlightAware Transoceanic
02:25PM 46.8641 -162.1113 84° East 523 602 43,000  Level FlightAware Transoceanic
02:26PM 46.8794 -161.9007 84° East 523 602 43,000  Level FlightAware Transoceanic
02:27PM 46.8944 -161.6899 84° East 523 602 43,000  Level FlightAware Transoceanic
02:28PM 46.9089 -161.4791 84° East 523 602 43,000  Level FlightAware Transoceanic
02:29PM 46.9231 -161.2681 84° East 523 602 43,000  Level FlightAware Transoceanic
02:30PM 46.9369 -161.0570 85° East 523 602 43,000  Level FlightAware Transoceanic
02:31PM 46.9503 -160.8458 85° East 523 602 43,000  Level FlightAware Transoceanic
02:32PM 46.9633 -160.6345 85° East 523 602 43,000  Level FlightAware Transoceanic
02:33PM 46.9759 -160.4231 85° East 523 602 43,000  Level FlightAware Transoceanic
02:34PM 46.9882 -160.2116 85° East 523 602 43,000  Level FlightAware Transoceanic
02:35PM 47.0000 -160.0000 86° East 523 602 43,000  Level FlightAware Transoceanic
02:36PM 47.0091 -159.7878 86° East 523 602 43,000  Level FlightAware Transoceanic
02:37PM 47.0177 -159.5755 87° East 523 602 43,000  Level FlightAware Transoceanic
02:38PM 47.0260 -159.3631 87° East 523 602 43,000  Level FlightAware Transoceanic
02:39PM 47.0339 -159.1507 87° East 523 602 43,000  Level FlightAware Transoceanic
02:40PM 47.0414 -158.9382 87° East 523 602 43,000  Level FlightAware Transoceanic
02:41PM 47.0485 -158.7257 87° East 523 602 43,000  Level FlightAware Transoceanic
02:41PM 47.0000 -160.0000 86° East 524 603 43,000  Level Oakland Oceanic (ODAPS)
02:42PM 47.0552 -158.5131 87° East 523 602 43,000  Level FlightAware Transoceanic
02:43PM 47.0615 -158.3004 88° East 523 602 43,000  Level FlightAware Transoceanic
02:44PM 47.0674 -158.0877 88° East 523 602 43,000  Level FlightAware Transoceanic
02:45PM 47.0730 -157.8750 88° East 523 602 43,000  Level FlightAware Transoceanic
02:46PM 47.0781 -157.6622 88° East 523 602 43,000  Level FlightAware Transoceanic
02:47PM 47.0828 -157.4493 88° East 523 602 43,000  Level FlightAware Transoceanic
02:48PM 47.0872 -157.2365 88° East 524 603 43,000  Level FlightAware Transoceanic
02:49PM 47.0911 -157.0236 89° East 524 603 43,000  Level FlightAware Transoceanic
02:50PM 47.0947 -156.8107 89° East 524 603 43,000  Level FlightAware Transoceanic
02:51PM 47.0978 -156.5977 89° East 524 603 43,000  Level FlightAware Transoceanic
02:52PM 47.1006 -156.3847 89° East 524 603 43,000  Level FlightAware Transoceanic
02:53PM 47.1030 -156.1717 89° East 524 603 43,000  Level FlightAware Transoceanic
02:54PM 47.1049 -155.9587 89° East 524 603 43,000  Level FlightAware Transoceanic
02:55PM 47.1065 -155.7457 89° East 524 603 43,000  Level FlightAware Transoceanic
02:56PM 47.1077 -155.5326 90° East 524 603 43,000  Level FlightAware Transoceanic
02:57PM 47.1085 -155.3196 90° East 524 603 43,000  Level FlightAware Transoceanic
02:58PM 47.1089 -155.1065 90° East 524 603 43,000  Level FlightAware Transoceanic
02:59PM 47.1089 -154.8935 90° East 524 603 43,000  Level FlightAware Transoceanic
03:00PM 47.1085 -154.6804 90° East 524 603 43,000  Level FlightAware Transoceanic
03:01PM 47.1077 -154.4674 90° East 524 603 43,000  Level FlightAware Transoceanic
03:02PM 47.1065 -154.2543 91° East 524 603 43,000  Level FlightAware Transoceanic
03:03PM 47.1049 -154.0413 91° East 524 603 43,000  Level FlightAware Transoceanic
03:04PM 47.1030 -153.8283 91° East 524 603 43,000  Level FlightAware Transoceanic
03:05PM 47.1006 -153.6153 91° East 524 603 43,000  Level FlightAware Transoceanic
03:06PM 47.0978 -153.4023 91° East 524 603 43,000  Level FlightAware Transoceanic
03:07PM 47.0947 -153.1893 91° East 524 603 43,000  Level FlightAware Transoceanic
03:08PM 47.0911 -152.9764 91° East 524 603 43,000  Level FlightAware Transoceanic
03:09PM 47.0872 -152.7635 92° East 524 603 43,000  Level FlightAware Transoceanic
03:10PM 47.0828 -152.5507 92° East 524 603 43,000  Level FlightAware Transoceanic
03:11PM 47.0781 -152.3378 92° East 524 603 43,000  Level FlightAware Transoceanic
03:12PM 47.0730 -152.1250 92° East 524 603 43,000  Level FlightAware Transoceanic
03:13PM 47.0674 -151.9123 92° East 524 603 43,000  Level FlightAware Transoceanic
03:14PM 47.0615 -151.6996 92° East 524 603 43,000  Level FlightAware Transoceanic
03:15PM 47.0552 -151.4869 93° East 524 603 43,000  Level FlightAware Transoceanic
03:16PM 47.0485 -151.2743 93° East 524 603 43,000  Level FlightAware Transoceanic
03:17PM 47.0414 -151.0618 93° East 524 603 43,000  Level FlightAware Transoceanic
03:18PM 47.0339 -150.8493 93° East 524 603 43,000  Level FlightAware Transoceanic
03:19PM 47.0260 -150.6369 93° East 524 603 43,000  Level FlightAware Transoceanic
03:20PM 47.0177 -150.4245 93° East 524 603 43,000  Level FlightAware Transoceanic
03:21PM 47.0091 -150.2122 94° East 524 603 43,000  Level FlightAware Transoceanic
03:22PM 47.0000 -150.0000 102° East 524 603 43,000  Level FlightAware Transoceanic
03:23PM 46.9694 -149.7973 103° East 524 603 43,000  Level FlightAware Transoceanic
03:24PM 46.9384 -149.5949 103° East 524 603 43,000  Level FlightAware Transoceanic
03:25PM 46.9070 -149.3926 103° East 524 603 43,000 1,200 Level FlightAware Transoceanic
03:25PM 47.0000 -150.0000 102° East 521 600 45,000  Climbing Oakland Oceanic (ODAPS)
03:26PM 46.8753 -149.1907 103° East 524 603 43,000 -1,500 Descending FlightAware Transoceanic
03:27PM 46.8432 -148.9889 103° East 524 603 43,000  Level FlightAware Transoceanic
03:28PM 46.8108 -148.7874 103° East 524 603 43,000  Level FlightAware Transoceanic
03:29PM 46.7780 -148.5862 103° East 524 603 43,000  Level FlightAware Transoceanic
03:30PM 46.7449 -148.3852 104° East 524 603 43,000 960 Level FlightAware Transoceanic
03:31PM 46.7054 -148.1483 104° East 521 600 45,000 960 Climbing FlightAware Transoceanic
03:32PM 46.6708 -147.9438 104° East 521 600 45,000  Level FlightAware Transoceanic
03:33PM 46.6359 -147.7396 104° East 521 600 45,000  Level FlightAware Transoceanic
03:34PM 46.6006 -147.5357 104° East 521 600 45,000  Level FlightAware Transoceanic
03:35PM 46.5649 -147.3320 104° East 521 600 45,000  Level FlightAware Transoceanic
03:36PM 46.5289 -147.1286 105° East 521 600 45,000  Level FlightAware Transoceanic
03:37PM 46.4925 -146.9254 105° East 521 600 45,000  Level FlightAware Transoceanic
03:38PM 46.4558 -146.7226 105° East 521 600 45,000  Level FlightAware Transoceanic
03:39PM 46.4187 -146.5200 105° East 521 600 45,000  Level FlightAware Transoceanic
03:40PM 46.3812 -146.3177 105° East 521 600 45,000  Level FlightAware Transoceanic
03:41PM 46.3434 -146.1156 105° East 521 600 45,000  Level FlightAware Transoceanic
03:42PM 46.3052 -145.9139 105° East 521 600 45,000  Level FlightAware Transoceanic
03:43PM 46.2667 -145.7124 106° East 521 600 45,000  Level FlightAware Transoceanic
03:44PM 46.2279 -145.5112 106° East 521 600 45,000  Level FlightAware Transoceanic
03:45PM 46.1886 -145.3103 106° East 521 600 45,000  Level FlightAware Transoceanic
03:46PM 46.1490 -145.1097 106° East 521 600 45,000  Level FlightAware Transoceanic
03:47PM 46.1091 -144.9094 106° East 521 600 45,000  Level FlightAware Transoceanic
03:48PM 46.0688 -144.7094 106° East 521 600 45,000  Level FlightAware Transoceanic
03:49PM 46.0282 -144.5096 106° East 521 600 45,000  Level FlightAware Transoceanic
03:50PM 45.9872 -144.3102 107° East 521 600 45,000  Level FlightAware Transoceanic
03:51PM 45.9459 -144.1110 107° East 521 600 45,000  Level FlightAware Transoceanic
03:52PM 45.9043 -143.9122 107° East 521 600 45,000  Level FlightAware Transoceanic
03:53PM 45.8622 -143.7136 107° East 521 600 45,000  Level FlightAware Transoceanic
03:54PM 45.8199 -143.5154 107° East 521 600 45,000  Level FlightAware Transoceanic
03:55PM 45.7772 -143.3174 107° East 521 600 45,000  Level FlightAware Transoceanic
03:56PM 45.7341 -143.1198 107° East 521 600 45,000  Level FlightAware Transoceanic
03:57PM 45.6908 -142.9225 108° East 521 600 45,000  Level FlightAware Transoceanic
03:58PM 45.6471 -142.7254 108° East 521 600 45,000  Level FlightAware Transoceanic
03:59PM 45.6030 -142.5287 108° East 521 600 45,000  Level FlightAware Transoceanic
04:00PM 45.5586 -142.3323 108° East 521 600 45,000  Level FlightAware Transoceanic
04:01PM 45.5139 -142.1362 108° East 521 600 45,000  Level FlightAware Transoceanic
04:02PM 45.4688 -141.9404 108° East 521 600 45,000  Level FlightAware Transoceanic
04:03PM 45.4234 -141.7449 108° East 521 600 45,000  Level FlightAware Transoceanic
04:04PM 45.3777 -141.5498 109° East 521 600 45,000  Level FlightAware Transoceanic
04:05PM 45.3316 -141.3549 109° East 521 600 45,000  Level FlightAware Transoceanic
04:06PM 45.2852 -141.1604 109° East 521 600 45,000  Level FlightAware Transoceanic
04:07PM 45.2385 -140.9662 109° East 521 600 45,000  Level FlightAware Transoceanic
04:08PM 45.1915 -140.7723 109° East 521 600 45,000  Level FlightAware Transoceanic
04:09PM 45.1441 -140.5788 109° East 521 600 45,000  Level FlightAware Transoceanic
04:10PM 45.0964 -140.3855 109° East 521 600 45,000  Level FlightAware Transoceanic
04:11PM 45.0484 -140.1926 109° East 521 600 45,000  Level FlightAware Transoceanic
04:12PM 45.0000 -140.0000 109° East 521 600 45,000  Level FlightAware Transoceanic
04:13PM 44.9543 -139.8128 109° East 521 600 45,000  Level FlightAware Transoceanic
04:14PM 44.9084 -139.6260 109° East 521 600 45,000  Level FlightAware Transoceanic
04:15PM 44.8621 -139.4394 109° East 521 600 45,000  Level FlightAware Transoceanic
04:16PM 44.8155 -139.2532 109° East 521 600 45,000  Level FlightAware Transoceanic
04:17PM 44.7686 -139.0672 110° East 521 600 45,000  Level FlightAware Transoceanic
04:17PM 45.0000 -140.0000 109° East 505 581 45,000  Level Oakland Oceanic (ODAPS)
04:18PM 44.7214 -138.8816 110° East 521 600 45,000  Level FlightAware Transoceanic
04:19PM 44.6739 -138.6962 110° East 521 600 45,000  Level FlightAware Transoceanic
04:20PM 44.6261 -138.5112 110° East 521 600 45,000  Level FlightAware Transoceanic
04:21PM 44.5780 -138.3264 110° East 521 600 45,000  Level FlightAware Transoceanic
04:22PM 44.5297 -138.1420 110° East 521 600 45,000  Level FlightAware Transoceanic
04:23PM 44.5297 -138.1420 110° East 505 581 45,000  Level FlightAware Transoceanic
04:24PM 44.4810 -137.9579 110° East 505 581 45,000  Level FlightAware Transoceanic
04:25PM 44.4320 -137.7740 111° Southeast 505 581 45,000  Level FlightAware Transoceanic
04:26PM 44.3827 -137.5905 111° Southeast 505 581 45,000  Level FlightAware Transoceanic
04:27PM 44.3331 -137.4073 111° Southeast 505 581 45,000  Level FlightAware Transoceanic
04:28PM 44.2833 -137.2245 111° Southeast 505 581 45,000  Level FlightAware Transoceanic
04:29PM 44.2332 -137.0419 111° Southeast 505 581 45,000  Level FlightAware Transoceanic
04:30PM 44.1827 -136.8596 111° Southeast 505 581 45,000  Level FlightAware Transoceanic
04:31PM 44.1320 -136.6776 111° Southeast 505 581 45,000  Level FlightAware Transoceanic
04:32PM 44.0810 -136.4960 111° Southeast 505 581 45,000  Level FlightAware Transoceanic
04:33PM 44.0297 -136.3147 112° Southeast 505 581 45,000  Level FlightAware Transoceanic
04:34PM 43.9781 -136.1337 112° Southeast 505 581 45,000  Level FlightAware Transoceanic
04:35PM 43.9262 -135.9530 112° Southeast 505 581 45,000  Level FlightAware Transoceanic
04:36PM 43.8740 -135.7726 112° Southeast 505 581 45,000  Level FlightAware Transoceanic
04:37PM 43.8216 -135.5925 112° Southeast 505 581 45,000  Level FlightAware Transoceanic
04:38PM 43.7689 -135.4128 112° Southeast 505 581 45,000  Level FlightAware Transoceanic
04:39PM 43.7159 -135.2333 112° Southeast 505 581 45,000  Level FlightAware Transoceanic
04:40PM 43.6626 -135.0542 112° Southeast 505 581 45,000  Level FlightAware Transoceanic
04:41PM 43.6090 -134.8754 113° Southeast 505 581 45,000  Level FlightAware Transoceanic
04:42PM 43.5552 -134.6970 113° Southeast 505 581 45,000  Level FlightAware Transoceanic
04:43PM 43.5010 -134.5188 113° Southeast 505 581 45,000  Level FlightAware Transoceanic
04:44PM 43.4467 -134.3410 113° Southeast 505 581 45,000  Level FlightAware Transoceanic
04:45PM 43.3920 -134.1635 113° Southeast 505 581 45,000  Level FlightAware Transoceanic
04:46PM 43.3370 -133.9863 113° Southeast 505 581 45,000  Level FlightAware Transoceanic
04:47PM 43.2818 -133.8094 113° Southeast 505 581 45,000  Level FlightAware Transoceanic
04:48PM 43.2263 -133.6328 113° Southeast 505 581 45,000  Level FlightAware Transoceanic
04:49PM 43.1706 -133.4566 114° Southeast 505 581 45,000  Level FlightAware Transoceanic
04:50PM 43.1145 -133.2807 114° Southeast 505 581 45,000  Level FlightAware Transoceanic
04:51PM 43.0582 -133.1051 114° Southeast 505 581 45,000  Level FlightAware Transoceanic
04:52PM 43.0017 -132.9298 114° Southeast 505 581 45,000  Level FlightAware Transoceanic
04:53PM 42.9448 -132.7549 114° Southeast 505 581 45,000  Level FlightAware Transoceanic
04:54PM 42.8877 -132.5803 114° Southeast 505 581 45,000  Level FlightAware Transoceanic
04:55PM 42.8304 -132.4060 114° Southeast 505 581 45,000  Level FlightAware Transoceanic
04:56PM 42.7727 -132.2320 114° Southeast 505 581 45,000  Level FlightAware Transoceanic
04:57PM 42.7148 -132.0584 114° Southeast 505 581 45,000  Level FlightAware Transoceanic
04:58PM 42.6567 -131.8851 115° Southeast 505 581 45,000  Level FlightAware Transoceanic
04:59PM 42.5983 -131.7121 115° Southeast 505 581 45,000  Level FlightAware Transoceanic
05:00PM 42.5396 -131.5394 115° Southeast 505 581 45,000  Level FlightAware Transoceanic
05:01PM 42.4807 -131.3671 115° Southeast 505 581 45,000  Level FlightAware Transoceanic
05:02PM 42.4215 -131.1950 115° Southeast 505 581 45,000  Level FlightAware Transoceanic
05:03PM 42.3620 -131.0233 115° Southeast 505 581 45,000  Level FlightAware Transoceanic
05:04PM 42.3023 -130.8520 115° Southeast 505 581 45,000  Level FlightAware Transoceanic
05:05PM 42.2424 -130.6809 115° Southeast 505 581 45,000  Level FlightAware Transoceanic
05:06PM 42.1822 -130.5102 116° Southeast 505 581 45,000  Level FlightAware Transoceanic
05:07PM 42.1217 -130.3398 116° Southeast 505 581 45,000  Level FlightAware Transoceanic
05:08PM 42.0610 -130.1697 116° Southeast 505 581 45,000  Level FlightAware Transoceanic
05:09PM 42.0000 -130.0000 120° Southeast 505 581 45,000  Level FlightAware Transoceanic
05:10PM 41.9300 -129.8389 120° Southeast 505 581 45,000  Level FlightAware Transoceanic
05:10PM 42.0000 -130.0000 120° Southeast 501 577 45,000  Level Oakland Oceanic (ODAPS)
05:11PM 41.8599 -129.6783 120° Southeast 505 581 45,000  Level FlightAware Transoceanic
05:12PM 41.7894 -129.5179 121° Southeast 505 581 45,000  Level FlightAware Transoceanic
05:13PM 41.7188 -129.3579 121° Southeast 505 581 45,000  Level FlightAware Transoceanic
05:14PM 41.6480 -129.1983 121° Southeast 505 581 45,000  Level FlightAware Transoceanic
05:15PM 41.5769 -129.0390 121° Southeast 505 581 45,000  Level FlightAware Transoceanic
05:16PM 41.5056 -128.8801 121° Southeast 501 577 45,000  Level FlightAware Transoceanic
05:17PM 41.4341 -128.7215 121° Southeast 501 577 45,000  Level FlightAware Transoceanic
05:18PM 41.3624 -128.5633 121° Southeast 501 577 45,000  Level FlightAware Transoceanic
05:19PM 41.2904 -128.4054 121° Southeast 501 577 45,000  Level FlightAware Transoceanic
05:20PM 41.2182 -128.2478 121° Southeast 501 577 45,000  Level FlightAware Transoceanic
05:21PM 41.1459 -128.0906 122° Southeast 501 577 45,000  Level FlightAware Transoceanic
05:22PM 41.0733 -127.9338 122° Southeast 501 577 45,000  Level FlightAware Transoceanic
05:23PM 41.0005 -127.7773 122° Southeast 501 577 45,000  Level FlightAware Transoceanic
05:24PM 40.9275 -127.6212 122° Southeast 501 577 45,000  Level FlightAware Transoceanic
05:25PM 40.8543 -127.4653 122° Southeast 501 577 45,000  Level FlightAware Transoceanic
05:26PM 40.7808 -127.3099 122° Southeast 501 577 45,000  Level FlightAware Transoceanic
05:27PM 40.7072 -127.1548 122° Southeast 501 577 45,000  Level FlightAware Transoceanic
05:28PM 40.6333 -127.0000 117° Southeast 501 577 45,000  Level FlightAware Transoceanic
05:29PM 40.5716 -126.8427 117° Southeast 501 577 45,000  Level FlightAware Transoceanic
05:29PM 40.6189 -126.9825 118° Southeast 500 575 45,000  Level Oakland Center
05:30PM 40.5096 -126.6858 118° Southeast 501 577 45,000  Level FlightAware Transoceanic
05:30PM 40.5528 -126.8200 118° Southeast 503 579 45,000  Level Oakland Center
05:31PM 40.4474 -126.5291 118° Southeast 501 577 45,000  Level FlightAware Transoceanic
05:31PM 40.4931 -126.6583 116° Southeast 500 575 45,000  Level Oakland Center
05:32PM 40.3850 -126.3727 118° Southeast 501 577 45,000  Level FlightAware Transoceanic
05:32PM 40.4028 -126.4781 123° Southeast 494 568 45,000  Level Oakland Center
05:33PM 40.3224 -126.2166 118° Southeast 501 577 45,000  Level FlightAware Transoceanic
05:33PM 40.3167 -126.3372 129° Southeast 495 570 45,000  Level Oakland Center
05:34PM 40.2596 -126.0608 118° Southeast 501 577 45,000  Level FlightAware Transoceanic
05:34PM 40.2283 -126.1975 130° Southeast 497 572 45,000  Level Oakland Center
05:35PM 40.1422 -126.0572 129° Southeast 498 573 45,000  Level Oakland Center
05:36PM 40.0572 -125.9186 129° Southeast 493 567 45,000  Level Oakland Center
05:37PM 39.9708 -125.7817 129° Southeast 492 566 45,000  Level Oakland Center
05:38PM 39.8853 -125.6428 129° Southeast 493 567 45,000  Level Oakland Center
05:39PM 39.8006 -125.5058 129° Southeast 491 565 45,000  Level Oakland Center
05:40PM 39.7136 -125.3681 129° Southeast 494 568 45,000  Level Oakland Center
05:41PM 39.6114 -125.2067 129° Southeast 487 560 45,000  Level Oakland Center
05:42PM 39.5278 -125.0725 129° Southeast 481 554 45,000 -300 Level Oakland Center
05:43PM 39.4428 -124.9397 130° Southeast 478 550 44,500 -1,080 Descending Oakland Center
05:44PM 39.3675 -124.8211 129° Southeast 470 541 42,900 -1,740 Descending Oakland Center
05:45PM 39.2847 -124.6914 129° Southeast 469 540 41,000 -2,100 Descending Oakland Center
05:46PM 39.1825 -124.5339 130° Southeast 477 549 38,700 -2,100 Descending Oakland Center
05:47PM 39.0986 -124.4025 129° Southeast 475 547 36,800 -1,860 Descending Oakland Center
05:48PM 39.0139 -124.2708 130° Southeast 477 549 34,900 -1,800 Descending Oakland Center
05:49PM 38.9361 -124.1553 131° Southeast 487 560 33,200 -1,920 Descending Oakland Center
05:50PM 38.8383 -124.0022 129° Southeast 489 563 31,000 -2,040 Descending Oakland Center
05:51PM 38.7497 -123.8675 130° Southeast 493 567 29,100 -1,920 Descending Oakland Center
05:52PM 38.6625 -123.7342 130° Southeast 492 566 27,100 -1,920 Descending Oakland Center
05:53PM 38.5758 -123.6053 131° Southeast 482 555 25,200 -1,860 Descending Oakland Center
05:54PM 38.4911 -123.4794 131° Southeast 470 541 23,400 -1,740 Descending Oakland Center
05:55PM 38.4097 -123.3567 130° Southeast 457 526 21,700 -1,920 Descending Oakland Center
05:56PM 38.3128 -123.2144 131° Southeast 446 513 19,600 -1,920 Descending Oakland Center
05:58PM 38.2358 -123.0989 130° Southeast 432 497 17,800 -1,740 Descending Oakland Center
05:59PM 38.1597 -122.9858 131° Southeast 423 487 16,100 -1,620 Descending Oakland Center
06:00PM 38.0850 -122.8783 131° Southeast 412 474 14,500 -1,620 Descending Oakland Center
06:01PM 38.0028 -122.7858 138° Southeast 400 460 12,900 -1,560 Descending Oakland Center
06:02PM 37.9200 -122.6983 140° Southeast 396 456 11,400 -1,080 Descending Oakland Center
06:02PM 37.8500 -122.6167 137° Southeast 386 444 11,000 -240 Descending Northern Cal TRACON
06:03PM 37.7667 -122.5333 142° Southeast 342 394 11,000  Level Northern Cal TRACON
06:04PM 37.7167 -122.4667 133° Southeast 260 299 11,000 -240 Level Northern Cal TRACON
06:05PM 37.6833 -122.3833 117° Southeast 261 300 10,600 -960 Descending Northern Cal TRACON
06:06PM 37.6500 -122.3167 122° Southeast 263 303 9,200 -1,560 Descending Northern Cal TRACON
06:07PM 37.6333 -122.2333 104° East 273 314 7,700 -1,200 Descending Northern Cal TRACON
06:08PM 37.6000 -122.1500 117° Southeast 241 277 6,800 -960 Descending Northern Cal TRACON
06:09PM 37.5667 -122.1000 130° Southeast 231 266 5,800 -1,200 Descending Northern Cal TRACON
06:10PM 37.5333 -122.1500 230° Southwest 205 236 4,400 -1,320 Descending Northern Cal TRACON
06:11PM 37.5500 -122.2167 288° West 199 229 3,200 -1,380 Descending Northern Cal TRACON
06:12PM 37.5833 -122.2833 302° West 183 211 1,700 -1,260 Descending Northern Cal TRACON
06:13PM 37.6000 -122.3333 293° West 154 177 800 -960 Descending Northern Cal TRACON